createdAt,value
2024-04-16T00:02:24.109Z,8.25
2024-04-16T00:12:25.249Z,8.06
2024-04-16T00:22:26.164Z,8
2024-04-16T00:32:27.021Z,7.94
2024-04-16T00:42:28.255Z,7.88
2024-04-16T00:52:29.155Z,7.81
2024-04-16T01:02:30.064Z,7.63
2024-04-16T01:12:31.311Z,7.5
2024-04-16T01:22:32.268Z,7.38
2024-04-16T01:32:33.212Z,7.25
2024-04-16T01:42:34.552Z,7.19
2024-04-16T01:52:35.554Z,7.19
2024-04-16T02:02:36.533Z,7.19
2024-04-16T02:12:37.695Z,7.13
2024-04-16T02:22:38.692Z,7.06
2024-04-16T02:32:39.751Z,6.88
2024-04-16T02:42:40.935Z,6.75
2024-04-16T02:52:41.859Z,6.75
2024-04-16T03:02:42.932Z,6.63
2024-04-16T03:12:44.146Z,6.56
2024-04-16T03:22:45.020Z,6.88
2024-04-16T03:32:45.896Z,6.75
2024-04-16T03:42:47.189Z,6.63
2024-04-16T03:52:48.042Z,6.5
2024-04-16T04:02:48.926Z,6.63
2024-04-16T04:12:50.230Z,6.69
2024-04-16T04:22:51.132Z,6.75
2024-04-16T04:32:52.087Z,6.88
2024-04-16T04:42:53.330Z,6.94
2024-04-16T04:52:54.169Z,6.94
2024-04-16T05:02:55.092Z,7
2024-04-16T05:12:56.391Z,7
2024-04-16T05:22:57.292Z,7.19
2024-04-16T05:32:58.194Z,7.19
2024-04-16T05:42:59.536Z,7.25
2024-04-16T05:53:00.428Z,7.19
2024-04-16T06:03:01.395Z,7.38
2024-04-16T06:13:03.429Z,7.31
2024-04-16T06:23:04.369Z,7.5
2024-04-16T06:33:05.276Z,7.56
2024-04-16T06:43:06.591Z,7.69
2024-04-16T06:53:07.481Z,7.88
2024-04-16T07:03:11.359Z,7.94
2024-04-16T07:13:12.703Z,8.19
2024-04-16T07:23:13.958Z,8.19
2024-04-16T07:33:14.962Z,8.13
2024-04-16T07:43:18.447Z,8.13
2024-04-16T07:53:19.572Z,8.31
2024-04-16T08:03:20.442Z,8.44
2024-04-16T08:13:21.726Z,9
2024-04-16T08:23:22.713Z,9.13
2024-04-16T08:33:24.911Z,9.13
2024-04-16T08:43:26.855Z,9.13
2024-04-16T08:53:27.899Z,9.13
2024-04-16T09:03:28.788Z,9.06
2024-04-16T09:13:30.148Z,9.06
2024-04-16T09:23:31.068Z,9.19
2024-04-16T09:33:36.433Z,9.31
2024-04-16T09:43:38.321Z,9.38
2024-04-16T09:53:39.181Z,9.38
2024-04-16T10:03:40.083Z,9.44
2024-04-16T10:13:42.526Z,9.63
2024-04-16T10:23:43.491Z,9.56
2024-04-16T10:33:44.393Z,9.44
2024-04-16T10:43:45.597Z,9.56
2024-04-16T10:53:46.484Z,9.94
2024-04-16T11:03:47.371Z,9.94
2024-04-16T11:13:48.818Z,10.19
2024-04-16T11:23:49.715Z,11.06
2024-04-16T11:33:50.642Z,11.06
2024-04-16T11:43:52.105Z,11.5
2024-04-16T11:53:53.045Z,11.5
2024-04-16T12:03:53.979Z,11.5
2024-04-16T12:13:55.199Z,11.88
2024-04-16T12:23:56.084Z,12.13
2024-04-16T12:33:57.010Z,12.06
2024-04-16T12:43:58.253Z,12.06
2024-04-16T12:53:59.130Z,11.88
2024-04-16T13:04:00.111Z,11.88
2024-04-16T13:14:01.322Z,11.94
2024-04-16T13:24:02.212Z,12
2024-04-16T13:34:03.380Z,12.19
2024-04-16T13:44:04.919Z,12.31
2024-04-16T13:54:05.947Z,12.06
2024-04-16T14:04:06.949Z,11.94
2024-04-16T14:14:08.318Z,12.19
2024-04-16T14:24:09.172Z,11.94
2024-04-16T14:34:10.051Z,13
2024-04-16T14:44:11.408Z,13.19
2024-04-16T14:54:12.286Z,12.13
2024-04-16T15:04:13.197Z,11.44
2024-04-16T15:14:14.515Z,11
2024-04-16T15:24:15.374Z,10.75
2024-04-16T15:34:16.270Z,10.94
2024-04-16T15:44:17.595Z,11.13
2024-04-16T15:54:18.528Z,10.88
2024-04-16T16:04:21.676Z,10.94
2024-04-16T16:14:24.783Z,10.69
2024-04-16T16:24:25.654Z,10.63
2024-04-16T16:34:26.534Z,10.69
2024-04-16T16:44:27.845Z,10.69
2024-04-16T16:54:28.723Z,10.31
2024-04-16T17:04:29.683Z,10.13
2024-04-16T17:14:30.559Z,10.06
2024-04-16T17:24:31.523Z,9.81
2024-04-16T17:34:32.382Z,9.63
2024-04-16T17:44:33.637Z,9.44
2024-04-16T17:54:34.514Z,9.31
2024-04-16T18:04:35.469Z,9.19
2024-04-16T18:14:36.912Z,9.31
2024-04-16T18:24:37.790Z,9.25
2024-04-16T18:34:38.691Z,9.13
2024-04-16T18:44:40.266Z,9.06
2024-04-16T18:54:41.168Z,9.19
2024-04-16T19:04:42.057Z,9.25
2024-04-16T19:14:43.290Z,9.19
2024-04-16T19:24:44.184Z,9.19
2024-04-16T19:34:45.084Z,9
2024-04-16T19:44:46.428Z,9
2024-04-16T19:54:47.321Z,8.94
2024-04-16T20:04:48.311Z,8.38
2024-04-16T20:14:49.806Z,8.44
2024-04-16T20:24:50.670Z,8.31
2024-04-16T20:34:53.266Z,8.13
2024-04-16T20:44:55.309Z,7.94
2024-04-16T20:54:56.169Z,7.94
2024-04-16T21:04:57.097Z,7.75
2024-04-16T21:14:58.281Z,7.81
2024-04-16T21:24:59.205Z,7.88
2024-04-16T21:35:00.139Z,7.88
2024-04-16T21:45:01.537Z,8
2024-04-16T21:55:02.402Z,7.94
2024-04-16T22:05:03.307Z,7.94
2024-04-16T22:15:04.598Z,7.81
2024-04-16T22:25:05.512Z,7.69
2024-04-16T22:35:06.376Z,7.81
2024-04-16T22:45:07.732Z,7.94
2024-04-16T22:55:08.577Z,7.88
2024-04-16T23:05:09.525Z,7.75
2024-04-16T23:15:11.020Z,7.75
2024-04-16T23:25:11.919Z,7.63
2024-04-16T23:35:12.791Z,7.69
2024-04-16T23:45:14.064Z,7.88
2024-04-16T23:55:14.950Z,7.75
